Time;durP1;ratioP1;P1;durP2;ratioP2;P2;SDS_P1;SDS_P2;PMS_P1;PMS_P2;Temp;Humidity;BMP_temperature;BMP_pressure;BME280_temperature;BME280_humidity;BME280_pressure;Samples;Min_cycle;Max_cycle;Signal;HPM_P1;HPM_P2
2024/01/08 00:02:22;;;;;;;24.35;17.37;;;;;;;1.56;60.33;99217.06;4405391;32;20154;-72
2024/01/08 00:04:52;;;;;;;23.33;17.62;;;;;;;1.81;60.11;99214.22;4405236;32;20185;-72
2024/01/08 00:07:21;;;;;;;26.33;19.12;;;;;;;1.81;59.89;99221.19;4405736;32;20152;-73
2024/01/08 00:09:52;;;;;;;25.02;17.92;;;;;;;1.84;59.81;99219.31;4405378;32;20149;-72
2024/01/08 00:12:21;;;;;;;24.00;18.65;;;;;;;1.66;60.36;99230.53;4405259;32;20153;-73
2024/01/08 00:14:50;;;;;;;25.48;17.92;;;;;;;1.42;60.74;99228.06;4405689;32;20428;-73
2024/01/08 00:17:20;;;;;;;29.02;17.98;;;;;;;1.43;60.71;99226.34;4405250;32;20153;-72
2024/01/08 00:19:50;;;;;;;24.25;16.75;;;;;;;1.69;60.24;99236.50;4404062;32;20199;-72
2024/01/08 00:22:23;;;;;;;23.87;17.35;;;;;;;1.66;60.12;99234.03;4405625;32;20452;-72
2024/01/08 00:24:52;;;;;;;27.62;18.40;;;;;;;1.64;60.23;99246.28;4405244;32;20177;-72
2024/01/08 00:27:21;;;;;;;24.12;17.60;;;;;;;1.80;59.87;99240.41;4405243;32;20153;-73
2024/01/08 00:29:51;;;;;;;24.92;18.50;;;;;;;1.51;60.48;99241.69;4405273;32;20180;-73
2024/01/08 00:32:22;;;;;;;22.45;16.65;;;;;;;1.48;60.70;99253.09;4405066;32;20188;-72
2024/01/08 00:34:51;;;;;;;23.77;18.27;;;;;;;1.25;61.40;99253.22;4405194;32;20164;-73
2024/01/08 00:37:21;;;;;;;26.17;17.50;;;;;;;1.36;61.26;99251.00;4405498;32;20200;-72
2024/01/08 00:39:50;;;;;;;27.23;18.12;;;;;;;1.19;61.02;99251.72;4405104;32;20130;-72
2024/01/08 00:42:19;;;;;;;28.48;19.50;;;;;;;1.22;61.59;99259.41;4405092;32;20153;-72
2024/01/08 00:44:49;;;;;;;27.40;19.80;;;;;;;1.20;62.01;99258.62;4404978;32;20565;-73
2024/01/08 00:47:18;;;;;;;26.00;18.52;;;;;;;1.17;62.56;99264.81;4404937;32;20172;-72
2024/01/08 00:49:48;;;;;;;23.90;18.23;;;;;;;1.10;62.78;99268.56;4404993;32;20177;-72
2024/01/08 00:52:17;;;;;;;31.98;20.83;;;;;;;1.06;63.44;99268.75;4405308;32;20469;-72
2024/01/08 00:54:46;;;;;;;24.75;17.35;;;;;;;1.10;62.94;99281.62;4404871;32;20188;-72
2024/01/08 00:57:15;;;;;;;27.30;19.12;;;;;;;0.91;63.47;99280.66;4404922;32;20157;-72
2024/01/08 00:59:44;;;;;;;24.77;18.95;;;;;;;1.32;63.48;99284.22;4405014;32;20722;-72
2024/01/08 01:02:13;;;;;;;26.40;19.83;;;;;;;1.42;63.12;99288.12;4404463;32;20173;-72
2024/01/08 01:04:42;;;;;;;32.15;19.48;;;;;;;1.55;62.25;99288.47;4404658;32;20176;-72
2024/01/08 01:07:14;;;;;;;27.25;20.55;;;;;;;1.54;62.53;99289.38;4404987;32;20156;-72
2024/01/08 01:09:45;;;;;;;30.88;20.75;;;;;;;1.44;62.96;99291.53;4404735;32;20153;-72
2024/01/08 01:12:15;;;;;;;28.25;21.20;;;;;;;1.07;63.36;99289.59;4404595;32;20173;-72
2024/01/08 01:14:44;;;;;;;23.87;19.02;;;;;;;1.30;63.52;99296.47;4404590;32;20153;-72
2024/01/08 01:17:14;;;;;;;27.77;19.40;;;;;;;1.22;63.32;99298.53;4404702;32;20192;-72
2024/01/08 01:19:43;;;;;;;23.85;18.87;;;;;;;1.10;64.11;99312.94;4404641;32;20156;-72
2024/01/08 01:22:13;;;;;;;27.55;21.73;;;;;;;1.37;62.96;99304.91;4404845;32;20136;-72
2024/01/08 01:24:42;;;;;;;25.55;18.27;;;;;;;1.34;63.44;99305.84;4404550;32;20165;-72
2024/01/08 01:27:12;;;;;;;25.48;19.90;;;;;;;1.60;62.26;99304.78;4404575;32;20165;-73
2024/01/08 01:29:40;;;;;;;25.08;19.10;;;;;;;1.50;62.14;99316.53;4404536;32;20157;-72
2024/01/08 01:32:10;;;;;;;25.10;18.77;;;;;;;1.50;62.04;99311.28;4404388;32;20168;-72
2024/01/08 01:34:39;;;;;;;26.75;19.67;;;;;;;1.29;62.31;99313.03;4404417;32;20441;-72
2024/01/08 01:37:08;;;;;;;29.15;20.83;;;;;;;1.61;61.60;99310.84;4404678;32;20153;-72
2024/01/08 01:39:38;;;;;;;25.67;19.77;;;;;;;1.57;62.14;99311.91;4404347;32;20153;-72
2024/01/08 01:42:08;;;;;;;30.25;19.75;;;;;;;1.53;62.05;99312.94;4404287;32;20154;-72
2024/01/08 01:44:37;;;;;;;28.77;19.62;;;;;;;1.42;61.66;99306.41;4404215;32;20177;-72
2024/01/08 01:47:06;;;;;;;28.02;21.08;;;;;;;1.33;61.59;99317.22;4404269;32;20168;-72
2024/01/08 01:49:36;;;;;;;24.85;20.00;;;;;;;1.34;60.88;99321.53;4404440;32;20431;-72
2024/01/08 01:52:07;;;;;;;24.40;19.92;;;;;;;1.54;61.50;99314.63;4404314;32;20438;-72
2024/01/08 01:54:37;;;;;;;27.62;18.85;;;;;;;1.04;62.69;99307.13;4404084;32;20552;-72
2024/01/08 01:57:08;;;;;;;29.65;18.90;;;;;;;1.18;63.47;99307.41;4404113;32;20177;-72
2024/01/08 01:59:36;;;;;;;27.80;20.20;;;;;;;0.86;64.76;99306.06;4404161;32;20156;-72
2024/01/08 02:02:10;;;;;;;30.77;20.33;;;;;;;0.82;65.29;99307.94;4404033;32;20149;-72
2024/01/08 02:04:44;;;;;;;26.85;18.00;;;;;;;0.95;65.51;99310.91;4403916;32;20205;-72
2024/01/08 02:07:17;;;;;;;27.35;20.60;;;;;;;0.95;65.19;99316.13;4404425;32;20145;-72
2024/01/08 02:09:47;;;;;;;28.92;21.37;;;;;;;0.74;65.59;99329.09;4404020;32;20180;-72
2024/01/08 02:12:18;;;;;;;23.65;17.98;;;;;;;0.88;65.44;99338.19;4403793;32;20438;-72
2024/01/08 02:14:47;;;;;;;30.30;20.47;;;;;;;0.86;65.74;99340.81;4405410;32;20153;-72
2024/01/08 02:17:17;;;;;;;27.50;19.30;;;;;;;0.86;66.39;99338.22;4406111;32;20157;-72
2024/01/08 02:19:47;;;;;;;31.90;22.10;;;;;;;0.74;65.87;99342.16;4406108;32;20177;-72
2024/01/08 02:22:16;;;;;;;28.02;19.85;;;;;;;1.04;65.91;99334.06;4406274;32;20193;-72
2024/01/08 02:24:47;;;;;;;28.92;20.50;;;;;;;0.81;66.21;99337.56;4406109;32;20161;-72
2024/01/08 02:27:16;;;;;;;29.48;21.65;;;;;;;0.76;66.23;99338.66;4406086;32;20161;-72
2024/01/08 02:29:45;;;;;;;28.87;20.30;;;;;;;1.06;65.27;99336.59;4406200;32;20435;-72
2024/01/08 02:32:14;;;;;;;26.25;19.20;;;;;;;1.05;64.51;99320.09;4405962;32;20158;-72
2024/01/08 02:34:44;;;;;;;24.63;19.15;;;;;;;0.92;63.53;99318.88;4405854;32;20168;-72
2024/01/08 02:37:13;;;;;;;25.02;19.25;;;;;;;0.91;62.60;99323.25;4406286;32;20620;-72
2024/01/08 02:39:42;;;;;;;27.23;18.73;;;;;;;0.85;62.53;99336.53;4405983;32;20176;-72
2024/01/08 02:42:14;;;;;;;28.75;18.98;;;;;;;0.86;62.34;99339.97;4405845;32;20153;-72
2024/01/08 02:44:43;;;;;;;31.77;21.67;;;;;;;0.74;61.64;99336.94;4405863;32;20172;-71
2024/01/08 02:47:16;;;;;;;27.25;19.15;;;;;;;1.01;61.65;99336.78;4405906;32;20443;-72
2024/01/08 02:49:45;;;;;;;26.62;19.15;;;;;;;0.83;61.56;99350.53;4405787;32;20153;-71
2024/01/08 02:52:14;;;;;;;27.60;18.02;;;;;;;0.82;62.04;99349.69;4406154;32;20200;-73
2024/01/08 02:54:43;;;;;;;27.90;18.42;;;;;;;1.01;62.12;99352.44;4405726;32;20193;-72
2024/01/08 02:57:14;;;;;;;26.92;17.98;;;;;;;0.84;61.96;99360.06;4405745;32;20166;-72
2024/01/08 02:59:43;;;;;;;27.80;18.50;;;;;;;0.71;61.34;99360.53;4405969;32;20149;-72
2024/01/08 03:02:13;;;;;;;31.52;19.48;;;;;;;0.83;61.35;99363.56;4405803;32;20156;-71
2024/01/08 03:04:45;;;;;;;;;;;;;;;0.70;62.36;99355.34;4406031;32;20160;-72
2024/01/08 03:07:17;;;;;;;23.45;17.67;;;;;;;0.70;62.25;99374.47;4406143;32;20024;-72
2024/01/08 03:09:47;;;;;;;29.83;20.08;;;;;;;0.87;62.11;99368.63;4405760;32;20172;-72
2024/01/08 03:12:17;;;;;;;29.60;19.85;;;;;;;0.73;63.22;99368.28;4405874;32;20165;-72
2024/01/08 03:14:46;;;;;;;28.50;18.98;;;;;;;0.83;63.68;99387.03;4405653;32;20513;-72
2024/01/08 03:17:15;;;;;;;28.40;19.48;;;;;;;0.88;63.81;99380.75;4405691;32;20156;-72
2024/01/08 03:19:48;;;;;;;30.15;22.02;;;;;;;0.88;63.99;99385.97;4405725;32;20156;-72
2024/01/08 03:22:17;;;;;;;29.02;20.50;;;;;;;0.71;64.85;99394.44;4405900;32;20145;-72
2024/01/08 03:24:46;;;;;;;25.50;19.98;;;;;;;0.52;65.72;99403.84;4405507;32;20188;-71
2024/01/08 03:27:17;;;;;;;30.58;21.60;;;;;;;0.45;66.21;99402.34;4405607;32;20148;-72
2024/01/08 03:29:50;;;;;;;26.85;19.23;;;;;;;0.61;65.69;99406.09;4405669;32;20164;-71
2024/01/08 03:32:22;;;;;;;25.62;19.15;;;;;;;0.68;65.67;99406.72;4405626;32;20160;-72
2024/01/08 03:34:56;;;;;;;27.90;19.25;;;;;;;0.83;65.20;99398.34;4405572;32;20192;-71
2024/01/08 03:37:25;;;;;;;26.90;19.67;;;;;;;0.62;64.98;99402.56;4405821;32;20161;-72
2024/01/08 03:39:56;;;;;;;31.37;21.55;;;;;;;0.68;65.35;99406.72;4405620;32;20169;-72
2024/01/08 03:42:27;;;;;;;29.42;20.35;;;;;;;0.62;64.60;99410.41;4405436;32;20157;-72
2024/01/08 03:44:56;;;;;;;28.70;19.70;;;;;;;0.82;63.96;99424.47;4405576;32;20180;-71
2024/01/08 03:47:29;;;;;;;25.42;18.98;;;;;;;0.83;63.40;99429.63;4405531;32;20169;-71
2024/01/08 03:49:59;;;;;;;30.05;20.02;;;;;;;0.86;63.52;99431.25;4405764;32;20152;-72
2024/01/08 03:52:28;;;;;;;28.95;18.87;;;;;;;0.76;62.74;99438.59;4405687;32;20533;-72
2024/01/08 03:54:57;;;;;;;26.65;19.85;;;;;;;0.66;63.32;99432.84;4405445;32;20172;-72
2024/01/08 03:57:28;;;;;;;27.08;20.48;;;;;;;0.93;62.05;99432.75;4405485;32;20176;-72
2024/01/08 03:59:57;;;;;;;26.45;19.55;;;;;;;0.41;63.15;99432.88;4405575;32;20452;-72
2024/01/08 04:02:30;;;;;;;27.65;19.05;;;;;;;0.76;62.79;99433.38;4405406;32;20173;-72
2024/01/08 04:04:59;;;;;;;30.10;19.85;;;;;;;0.74;62.50;99443.00;4405565;32;20474;-72
2024/01/08 04:07:28;;;;;;;29.12;18.55;;;;;;;0.97;62.24;99434.34;4405992;32;20149;-73
2024/01/08 04:09:58;;;;;;;32.95;21.20;;;;;;;0.80;62.29;99442.78;4405117;32;20172;-72
2024/01/08 04:12:28;;;;;;;27.42;20.30;;;;;;;0.81;62.77;99447.09;4405295;32;20157;-72
2024/01/08 04:14:57;;;;;;;25.95;18.95;;;;;;;0.97;61.61;99447.38;4405104;32;20165;-72
2024/01/08 04:17:27;;;;;;;26.95;20.50;;;;;;;0.79;62.06;99445.44;4405166;32;20173;-72
2024/01/08 04:20:00;;;;;;;26.48;19.87;;;;;;;0.61;62.71;99446.97;4405436;32;20180;-71
2024/01/08 04:22:29;;;;;;;27.30;19.08;;;;;;;0.84;61.64;99446.13;4405447;32;20541;-72
2024/01/08 04:24:58;;;;;;;27.48;20.10;;;;;;;0.34;62.76;99448.78;4404848;32;20517;-72
2024/01/08 04:27:28;;;;;;;28.85;19.20;;;;;;;0.53;62.33;99455.06;4405241;32;20149;-72
2024/01/08 04:29:58;;;;;;;21.75;17.12;;;;;;;0.34;62.48;99460.06;4405148;32;20169;-72
2024/01/08 04:32:27;;;;;;;30.95;20.55;;;;;;;0.31;62.96;99459.31;4405156;32;20489;-72
2024/01/08 04:34:59;;;;;;;26.27;20.10;;;;;;;0.63;62.07;99455.56;4405010;32;20173;-71
2024/01/08 04:37:29;;;;;;;31.25;20.00;;;;;;;0.61;61.62;99462.59;4404831;32;20537;-72
2024/01/08 04:39:58;;;;;;;25.60;18.67;;;;;;;0.51;61.43;99463.81;4405019;32;20185;-72
2024/01/08 04:42:32;;;;;;;29.60;19.90;;;;;;;0.52;61.52;99475.97;4403821;32;20180;-72
2024/01/08 04:45:01;;;;;;;27.95;19.73;;;;;;;0.34;62.26;99475.69;4405227;32;20540;-72
2024/01/08 04:47:34;;;;;;;25.58;18.98;;;;;;;0.62;61.10;99475.56;4404992;32;20149;-72
2024/01/08 04:50:05;;;;;;;27.73;18.48;;;;;;;0.33;61.17;99479.22;4403691;32;20508;-72
2024/01/08 04:52:34;;;;;;;25.88;19.08;;;;;;;0.36;61.43;99479.12;4405075;32;20536;-72
2024/01/08 04:55:04;;;;;;;28.17;19.48;;;;;;;0.26;61.52;99482.06;4405245;32;20201;-72
2024/01/08 04:57:35;;;;;;;30.83;20.40;;;;;;;0.28;62.02;99486.34;4403519;32;20185;-72
2024/01/08 05:00:06;;;;;;;29.17;19.98;;;;;;;0.29;61.92;99493.25;4403614;32;20192;-72
2024/01/08 05:02:38;;;;;;;26.75;19.33;;;;;;;0.28;61.68;99494.16;4404710;32;20161;-72
2024/01/08 05:05:08;;;;;;;27.90;20.17;;;;;;;0.35;61.40;99494.78;4404730;32;20172;-72
2024/01/08 05:07:37;;;;;;;26.65;18.70;;;;;;;0.45;60.95;99497.03;4404620;32;20524;-71
2024/01/08 05:10:12;;;;;;;29.95;19.52;;;;;;;0.23;61.75;99491.69;4405059;32;20121;-72
2024/01/08 05:12:43;;;;;;;26.23;20.05;;;;;;;0.38;61.59;99492.94;4404614;32;20192;-72
2024/01/08 05:15:12;;;;;;;29.15;20.62;;;;;;;0.34;61.65;99495.69;4404667;32;20168;-72
2024/01/08 05:17:42;;;;;;;29.15;19.98;;;;;;;0.17;61.91;99497.13;4404619;32;20160;-72
2024/01/08 05:20:12;;;;;;;29.00;19.27;;;;;;;-0.06;62.50;99507.44;4404614;32;20450;-71
2024/01/08 05:22:47;;;;;;;30.25;19.62;;;;;;;0.08;62.04;99505.25;4404451;32;20180;-72
2024/01/08 05:25:16;;;;;;;31.17;20.30;;;;;;;-0.06;62.79;99515.25;4404935;32;20172;-72
2024/01/08 05:27:47;;;;;;;33.00;20.37;;;;;;;0.05;62.67;99514.91;4404422;32;20153;-72
2024/01/08 05:30:16;;;;;;;29.83;19.98;;;;;;;-0.08;62.83;99523.13;4404576;32;20138;-72
2024/01/08 05:32:45;;;;;;;26.05;19.42;;;;;;;0.05;63.06;99523.56;4404697;32;20173;-72
2024/01/08 05:35:15;;;;;;;27.40;20.35;;;;;;;0.06;62.35;99535.69;4404345;32;20187;-72
2024/01/08 05:37:45;;;;;;;31.30;21.52;;;;;;;0.10;62.76;99544.25;4404249;32;20571;-72
2024/01/08 05:40:18;;;;;;;34.30;21.67;;;;;;;0.28;62.45;99535.84;4404705;32;20145;-72
2024/01/08 05:42:49;;;;;;;25.17;20.25;;;;;;;0.16;62.51;99544.03;4404244;32;20146;-72
2024/01/08 05:45:18;;;;;;;29.55;19.70;;;;;;;0.15;62.42;99550.16;4404373;32;20168;-72
2024/01/08 05:47:54;;;;;;;26.05;19.45;;;;;;;0.26;61.89;99557.63;4404639;32;20423;-72
2024/01/08 05:50:25;;;;;;;28.83;19.27;;;;;;;0.36;61.94;99551.22;4406114;32;20181;-72
2024/01/08 05:52:55;;;;;;;32.67;20.33;;;;;;;0.44;61.68;99552.69;4406142;32;20161;-72
2024/01/08 05:55:24;;;;;;;29.55;22.37;;;;;;;0.54;61.32;99568.84;4406634;32;20211;-72
2024/01/08 05:57:55;;;;;;;30.23;19.80;;;;;;;0.77;60.71;99573.28;4406268;32;20157;-72
2024/01/08 06:00:24;;;;;;;29.05;22.83;;;;;;;0.85;59.64;99562.59;4406320;32;20181;-72
2024/01/08 06:03:00;;;;;;;31.62;20.40;;;;;;;0.58;60.37;99564.38;4406210;32;20197;-72
2024/01/08 06:05:29;;;;;;;30.90;21.45;;;;;;;0.70;60.33;99561.34;4406211;32;20168;-72
2024/01/08 06:08:00;;;;;;;30.67;21.65;;;;;;;0.65;59.88;99569.34;4406121;32;20165;-72
2024/01/08 06:10:29;;;;;;;33.38;21.60;;;;;;;0.34;60.33;99564.28;4406270;32;20169;-72
2024/01/08 06:13:00;;;;;;;34.13;22.73;;;;;;;0.29;60.56;99578.41;4405884;32;20255;-72
2024/01/08 06:15:30;;;;;;;29.40;19.35;;;;;;;0.50;60.46;99575.06;4406046;32;20177;-72
2024/01/08 06:17:59;;;;;;;25.75;19.33;;;;;;;0.45;60.59;99575.22;4406101;32;20165;-72
2024/01/08 06:20:28;;;;;;;29.17;19.12;;;;;;;0.58;59.49;99574.81;4405946;32;20157;-72
2024/01/08 06:22:58;;;;;;;42.47;25.00;;;;;;;0.35;59.59;99586.00;4405768;32;20776;-72
2024/01/08 06:25:27;;;;;;;37.72;25.10;;;;;;;0.55;59.60;99580.13;4406361;32;20202;-72
2024/01/08 06:27:56;;;;;;;35.08;24.17;;;;;;;0.33;60.13;99590.41;4406023;32;20552;-72
2024/01/08 06:30:26;;;;;;;43.55;26.75;;;;;;;0.39;60.19;99598.88;4406123;32;20204;-72
2024/01/08 06:32:55;;;;;;;30.70;23.12;;;;;;;0.41;59.66;99599.69;4405966;32;20196;-72
2024/01/08 06:35:28;;;;;;;;;;;;;;;0.50;59.17;99603.75;4406242;32;20160;-72
2024/01/08 06:37:57;;;;;;;26.50;20.08;;;;;;;0.31;59.62;99602.63;4405965;32;20032;-72
2024/01/08 06:40:27;;;;;;;29.20;21.55;;;;;;;0.16;59.58;99606.56;4406333;32;20145;-72
2024/01/08 06:42:56;;;;;;;31.05;19.10;;;;;;;0.20;59.65;99611.66;4405909;32;20161;-72
2024/01/08 06:45:31;;;;;;;29.45;23.20;;;;;;;0.09;59.56;99615.50;4406021;32;20233;-72
2024/01/08 06:48:07;;;;;;;31.95;21.42;;;;;;;-0.10;59.94;99616.06;4406035;32;20164;-72
2024/01/08 06:50:38;;;;;;;30.20;22.00;;;;;;;-0.07;59.87;99618.56;4405870;32;20145;-72
2024/01/08 06:53:07;;;;;;;28.70;22.13;;;;;;;-0.18;59.67;99631.06;4405849;32;20164;-72
2024/01/08 06:55:36;;;;;;;32.67;22.42;;;;;;;-0.20;60.22;99637.19;4405817;32;20153;-72
2024/01/08 06:58:05;;;;;;;30.20;20.33;;;;;;;0.00;59.99;99640.09;4405057;32;20219;-72
2024/01/08 07:00:37;;;;;;;34.17;22.30;;;;;;;-0.08;59.78;99642.91;4405466;32;20165;-72
2024/01/08 07:03:09;;;;;;;30.70;22.73;;;;;;;-0.01;59.40;99644.41;4405800;32;20165;-72
2024/01/08 07:05:38;;;;;;;28.13;18.93;;;;;;;0.06;59.51;99650.31;4405739;32;20168;-72
2024/01/08 07:08:08;;;;;;;32.92;21.30;;;;;;;0.14;59.33;99643.09;4405687;32;20156;-72
2024/01/08 07:10:37;;;;;;;31.75;21.27;;;;;;;0.31;58.98;99639.97;4406076;32;20165;-72
2024/01/08 07:13:06;;;;;;;31.15;21.45;;;;;;;0.30;59.17;99640.88;4406025;32;20534;-72
2024/01/08 07:15:39;;;;;;;31.27;21.60;;;;;;;0.37;58.93;99646.75;4406021;32;20173;-72
2024/01/08 07:18:12;;;;;;;30.83;21.83;;;;;;;0.27;59.44;99655.75;4405677;32;20169;-72
2024/01/08 07:20:41;;;;;;;33.83;23.23;;;;;;;0.32;59.81;99662.53;4405644;32;20169;-72
2024/01/08 07:23:12;;;;;;;31.67;22.50;;;;;;;0.34;59.07;99659.88;4406011;32;20456;-72
2024/01/08 07:25:43;;;;;;;28.38;23.02;;;;;;;0.17;59.32;99663.00;4405510;32;20487;-72
2024/01/08 07:28:16;;;;;;;30.90;22.13;;;;;;;0.08;59.29;99665.87;4406037;32;20156;-72
2024/01/08 07:30:47;;;;;;;29.60;22.30;;;;;;;-0.16;59.34;99665.72;4405693;32;20169;-72
2024/01/08 07:33:22;;;;;;;30.33;20.52;;;;;;;0.02;59.17;99674.75;4405559;32;20488;-72
2024/01/08 07:35:52;;;;;;;31.37;21.25;;;;;;;-0.04;58.91;99683.59;4405585;32;20172;-72
2024/01/08 07:38:21;;;;;;;31.27;22.35;;;;;;;0.19;59.00;99688.09;4405476;32;20160;-72
2024/01/08 07:40:51;;;;;;;30.75;21.10;;;;;;;0.08;59.41;99697.13;4405640;32;20486;-72
2024/01/08 07:43:21;;;;;;;32.55;21.12;;;;;;;0.35;58.65;99695.44;4405899;32;20165;-73
2024/01/08 07:45:53;;;;;;;31.50;23.58;;;;;;;0.34;59.17;99697.22;4405608;32;20172;-72
2024/01/08 07:48:22;;;;;;;;;;;;;;;0.33;59.15;99705.09;4405965;32;20172;-72
2024/01/08 07:50:51;;;;;;;29.63;21.02;;;;;;;0.48;58.86;99709.84;4405581;32;20032;-72
2024/01/08 07:53:19;;;;;;;31.70;23.70;;;;;;;0.70;58.99;99710.00;4405789;32;20160;-72
2024/01/08 07:55:52;;;;;;;;;;;;;;;0.83;58.15;99716.53;4405856;32;20169;-72
2024/01/08 07:58:21;;;;;;;28.73;20.45;;;;;;;0.72;58.63;99709.06;4405771;32;20056;-72
2024/01/08 08:01:12;;;;;;;28.58;20.70;;;;;;;0.57;59.02;99721.72;4405106;32;20164;-72
2024/01/08 08:03:42;;;;;;;34.00;23.10;;;;;;;1.05;58.25;99726.25;4405379;32;20164;-72
2024/01/08 08:06:11;;;;;;;34.65;24.17;;;;;;;1.17;57.33;99725.84;4405436;32;20248;-72
2024/01/08 08:08:40;;;;;;;30.52;20.33;;;;;;;1.10;57.45;99729.56;4405306;32;20146;-72
2024/01/08 08:11:11;;;;;;;30.92;21.73;;;;;;;1.12;57.17;99733.84;4404674;32;20157;-72
2024/01/08 08:13:40;;;;;;;34.85;26.37;;;;;;;1.07;57.48;99727.91;4405316;32;20140;-72
2024/01/08 08:16:11;;;;;;;38.00;25.45;;;;;;;0.92;57.75;99731.88;4405746;32;20165;-72
2024/01/08 08:18:40;;;;;;;32.00;24.67;;;;;;;1.29;56.81;99738.47;4405222;32;20119;-72
2024/01/08 08:21:09;;;;;;;37.47;24.23;;;;;;;1.07;57.41;99745.31;4403952;32;20160;-72
2024/01/08 08:23:38;;;;;;;32.53;20.30;;;;;;;1.05;57.63;99752.34;4405549;32;20156;-72
2024/01/08 08:26:08;;;;;;;35.88;25.20;;;;;;;1.15;57.16;99745.94;4405336;32;20468;-72
2024/01/08 08:28:44;;;;;;;33.38;23.27;;;;;;;1.30;56.88;99757.59;4405408;32;20133;-72
2024/01/08 08:31:14;;;;;;;26.62;19.95;;;;;;;1.33;56.67;99760.13;4405508;32;20518;-72
2024/01/08 08:33:44;;;;;;;30.15;20.67;;;;;;;1.34;57.01;99765.28;4405434;32;20144;-72
2024/01/08 08:36:13;;;;;;;28.58;21.10;;;;;;;1.37;56.54;99766.94;4405206;32;20176;-72
2024/01/08 08:38:45;;;;;;;32.45;21.65;;;;;;;1.47;56.61;99768.34;4405172;32;20172;-72
2024/01/08 08:41:15;;;;;;;33.75;23.33;;;;;;;1.49;56.28;99766.50;4405199;32;20145;-72
2024/01/08 08:43:49;;;;;;;41.70;25.05;;;;;;;1.33;56.76;99779.22;4405102;32;20430;-72
2024/01/08 08:46:20;;;;;;;31.27;21.62;;;;;;;1.03;57.66;99782.84;4405581;32;20161;-72
2024/01/08 08:48:49;;;;;;;31.80;22.10;;;;;;;1.42;56.71;99778.06;4405409;32;20713;-73
2024/01/08 08:51:18;;;;;;;34.42;22.77;;;;;;;1.51;57.27;99788.22;4404992;32;20528;-72
2024/01/08 08:53:47;;;;;;;32.03;20.30;;;;;;;1.44;56.68;99786.72;4404892;32;20856;-72
2024/01/08 08:56:17;;;;;;;36.35;22.67;;;;;;;1.29;56.43;99789.84;4404997;32;20176;-72
2024/01/08 08:58:46;;;;;;;29.50;19.85;;;;;;;1.50;56.43;99791.72;4404848;32;20156;-72
2024/01/08 09:01:17;;;;;;;26.23;17.98;;;;;;;1.53;55.84;99801.22;4405206;32;20157;-72
2024/01/08 09:03:52;;;;;;;30.02;19.05;;;;;;;1.63;55.51;99798.25;4404833;32;20153;-72
2024/01/08 09:06:23;;;;;;;24.00;16.08;;;;;;;1.58;55.23;99796.69;4404847;32;20153;-72
2024/01/08 09:08:54;;;;;;;25.05;17.20;;;;;;;1.49;55.79;99797.84;4404759;32;20188;-72
2024/01/08 09:11:23;;;;;;;22.67;16.27;;;;;;;1.32;56.13;99803.63;4404810;32;20162;-72
2024/01/08 09:13:53;;;;;;;25.70;17.85;;;;;;;1.37;55.90;99798.25;4404784;32;20519;-72
2024/01/08 09:16:23;;;;;;;24.42;15.13;;;;;;;1.58;55.34;99800.12;4405116;32;20454;-72
2024/01/08 09:18:53;;;;;;;23.98;17.33;;;;;;;1.45;55.46;99804.06;4404624;32;20229;-72
2024/01/08 09:21:23;;;;;;;24.02;16.40;;;;;;;1.50;56.11;99804.75;4404793;32;20168;-72
2024/01/08 09:23:53;;;;;;;22.02;16.98;;;;;;;1.63;55.37;99805.22;4405919;32;20184;-72
2024/01/08 09:26:23;;;;;;;26.25;18.15;;;;;;;1.53;55.26;99809.03;4406651;32;20520;-72
2024/01/08 09:28:55;;;;;;;24.48;16.30;;;;;;;1.64;55.18;99810.37;4406574;32;20153;-72
2024/01/08 09:31:24;;;;;;;20.58;16.27;;;;;;;1.69;54.73;99805.84;4406831;32;20161;-72
2024/01/08 09:33:55;;;;;;;24.17;16.37;;;;;;;1.63;54.98;99813.91;4406486;32;20430;-72
2024/01/08 09:36:27;;;;;;;22.13;15.40;;;;;;;1.61;55.27;99810.47;4406391;32;20165;-72
2024/01/08 09:38:56;;;;;;;21.67;16.37;;;;;;;1.52;55.08;99815.19;4406432;32;20168;-72
2024/01/08 09:41:25;;;;;;;23.00;15.80;;;;;;;1.83;54.76;99820.22;4406460;32;20153;-72
2024/01/08 09:43:59;;;;;;;21.15;15.73;;;;;;;1.66;55.00;99811.22;4406454;32;20164;-72
2024/01/08 09:46:31;;;;;;;24.45;15.45;;;;;;;1.56;55.11;99816.78;4406842;32;20430;-72
2024/01/08 09:49:03;;;;;;;25.62;15.77;;;;;;;1.81;54.74;99801.97;4406294;32;20161;-72
2024/01/08 09:51:32;;;;;;;22.87;17.98;;;;;;;1.78;54.41;99796.84;4406297;32;20517;-72
2024/01/08 09:54:03;;;;;;;22.37;15.57;;;;;;;1.95;54.83;99798.88;4406393;32;20450;-72
2024/01/08 09:56:32;;;;;;;25.60;16.48;;;;;;;1.79;54.95;99802.94;4406363;32;20168;-72
2024/01/08 09:59:02;;;;;;;25.17;17.37;;;;;;;1.50;55.81;99802.16;4406271;32;20173;-72
2024/01/08 10:01:31;;;;;;;22.62;16.25;;;;;;;1.86;54.70;99810.50;4406546;32;20153;-72
2024/01/08 10:04:05;;;;;;;23.50;17.67;;;;;;;1.96;54.47;99806.66;4406197;32;20180;-72
2024/01/08 10:06:35;;;;;;;29.30;20.70;;;;;;;2.00;54.53;99801.31;4406064;32;20505;-72
2024/01/08 10:09:08;;;;;;;24.63;16.15;;;;;;;2.00;54.58;99804.78;4406183;32;20153;-72
2024/01/08 10:11:38;;;;;;;23.83;16.30;;;;;;;1.96;54.04;99805.81;4406191;32;20153;-72
2024/01/08 10:14:07;;;;;;;26.48;17.77;;;;;;;2.23;53.82;99803.97;4406263;32;20161;-72
2024/01/08 10:16:37;;;;;;;23.70;17.45;;;;;;;2.11;54.01;99805.25;4406300;32;20165;-72
2024/01/08 10:19:27;;;;;;;25.27;18.02;;;;;;;2.17;53.93;99804.16;4406446;32;20173;-73
2024/01/08 10:22:08;;;;;;;29.50;16.67;;;;;;;2.28;53.82;99806.41;4406146;32;20160;-72
2024/01/08 10:24:39;;;;;;;21.65;15.93;;;;;;;2.41;53.44;99807.62;4406057;32;20172;-72
2024/01/08 10:27:10;;;;;;;29.67;19.75;;;;;;;2.55;52.91;99802.75;4406152;32;20153;-72
2024/01/08 10:29:41;;;;;;;24.33;15.38;;;;;;;2.69;52.36;99808.31;4406029;32;20172;-72
2024/01/08 10:32:12;;;;;;;24.50;16.05;;;;;;;2.59;53.49;99796.50;4406068;32;20413;-72
2024/01/08 10:34:44;;;;;;;29.60;17.25;;;;;;;2.44;52.83;99804.91;4405247;32;20548;-72
2024/01/08 10:37:15;;;;;;;25.08;17.58;;;;;;;2.38;53.50;99797.31;4406390;32;20188;-72
2024/01/08 10:39:47;;;;;;;22.92;16.87;;;;;;;2.81;52.73;99809.63;4404420;32;20791;-72
2024/01/08 10:42:22;;;;;;;22.15;15.45;;;;;;;2.80;52.51;99802.66;4406044;32;20145;-72
2024/01/08 10:44:52;;;;;;;;;;;;;;;2.72;52.85;99802.94;4406286;32;20196;-72
2024/01/08 10:47:24;;;;;;;22.67;14.90;;;;;;;3.23;51.81;99800.09;4405971;32;20060;-72
2024/01/08 10:50:05;;;;;;;21.65;14.32;;;;;;;3.17;52.27;99804.69;4406112;32;20160;-72
2024/01/08 10:52:44;;;;;;;23.00;14.65;;;;;;;3.38;51.58;99796.84;4404591;32;20416;-72
2024/01/08 10:55:16;;;;;;;18.55;14.32;;;;;;;3.46;51.32;99805.25;4406251;32;20448;-72
2024/01/08 10:57:55;;;;;;;22.42;14.52;;;;;;;3.44;51.66;99810.56;4405863;32;20181;-72
2024/01/08 11:00:25;;;;;;;21.42;15.35;;;;;;;3.35;51.11;99807.44;4405815;32;20172;-72
2024/01/08 11:02:54;;;;;;;23.30;15.10;;;;;;;3.45;51.31;99803.56;4405855;32;20149;-72
2024/01/08 11:05:28;;;;;;;20.10;13.52;;;;;;;3.26;51.35;99813.06;4405903;32;20161;-72
2024/01/08 11:07:58;;;;;;;21.48;14.15;;;;;;;3.29;51.08;99808.56;4406081;32;20161;-72
2024/01/08 11:10:31;;;;;;;24.63;13.38;;;;;;;3.38;51.19;99817.81;4405972;32;20489;-72
2024/01/08 11:13:00;;;;;;;21.08;14.90;;;;;;;3.31;51.25;99818.97;4405349;32;20189;-72
2024/01/08 11:15:29;;;;;;;24.37;14.52;;;;;;;3.39;51.56;99820.34;4405749;32;20541;-72
2024/01/08 11:17:59;;;;;;;22.73;15.13;;;;;;;3.25;51.81;99820.09;4405828;32;20153;-72
2024/01/08 11:20:46;;;;;;;21.67;13.90;;;;;;;3.33;51.35;99822.41;4405667;32;20180;-72
2024/01/08 11:23:38;;;;;;;21.87;14.95;;;;;;;3.61;50.96;99819.47;4405822;32;20438;-72
2024/01/08 11:26:09;;;;;;;;;;;;;;;3.22;51.60;99820.19;4405942;32;20148;-72
2024/01/08 11:28:41;;;;;;;22.15;15.32;;;;;;;3.32;51.35;99811.03;4405839;32;20033;-72
2024/01/08 11:31:50;;;;;;;19.50;14.10;;;;;;;3.67;51.15;99813.97;4405959;32;20517;-72
2024/01/08 11:34:41;;;;;;;;;;;;;;;3.90;50.99;99813.00;4405792;32;20157;-72
2024/01/08 11:37:31;;;;;;;23.83;15.38;;;;;;;3.84;50.23;99821.09;4405558;32;20078;-72
2024/01/08 11:40:02;;;;;;;28.62;17.50;;;;;;;3.76;51.26;99823.19;4405442;32;20160;-72
2024/01/08 11:42:32;;;;;;;18.40;14.27;;;;;;;4.14;50.53;99818.94;4405519;32;20181;-72
2024/01/08 11:45:02;;;;;;;21.42;13.43;;;;;;;4.60;49.95;99816.88;4405591;32;20177;-72